Terminal Aerodrome Forecast
Issued by NWS Cleveland, OH

Home | Current Version | Previous Version | Text Only | Print | Product List | Glossary Off
Versions: 1 2 3 4 5 6 7 8 9 10 11 12 13 14 15 16 17 18 19

450
FTUS41 KCLE 110522
TAFCAK
TAF
KCAK 110522Z 1106/1206 28012KT 2SM -SHSN OVC018
      TEMPO 1106/1107 1/2SM SN OVC008
     FM110800 27012KT 5SM -SHSN OVC025
     FM111000 30010KT P6SM -SHSN BKN025
     FM111500 30012KT P6SM BKN035
     FM112300 23005KT P6SM SCT035=

USA.gov is the U.S. government's official web portal to all federal, state and local government web resources and services.